Time;durP1;ratioP1;P1;durP2;ratioP2;P2;SDS_P1;SDS_P2;PMS_P1;PMS_P2;Temp;Humidity;BMP_temperature;BMP_pressure;BME280_temperature;BME280_humidity;BME280_pressure;Samples;Min_cycle;Max_cycle;Signal;HPM_P1;HPM_P2
2023/01/04 00:01:21;;;;;;;7.97;2.45;;;;;;;9.51;82.63;101709.97;3567684;40;20367;-65
2023/01/04 00:03:47;;;;;;;10.43;2.45;;;;;;;9.49;83.00;101709.19;3568182;40;20088;-66
2023/01/04 00:06:15;;;;;;;5.70;2.13;;;;;;;9.46;82.57;101712.88;3569465;40;20102;-66
2023/01/04 00:08:42;;;;;;;9.95;2.20;;;;;;;9.40;83.70;101712.25;3568222;40;20048;-67
2023/01/04 00:11:16;;;;;;;8.25;2.35;;;;;;;9.39;84.25;101705.16;3569103;40;20347;-67
2023/01/04 00:13:43;;;;;;;9.30;2.42;;;;;;;9.38;84.36;101698.03;3567612;40;20155;-67
2023/01/04 00:16:15;;;;;;;7.05;2.35;;;;;;;9.32;85.19;101701.81;3569149;40;20053;-67
2023/01/04 00:18:41;;;;;;;9.82;2.38;;;;;;;9.37;85.27;101694.47;3568214;40;20065;-66
2023/01/04 00:21:15;;;;;;;7.10;2.53;;;;;;;9.34;85.16;101683.88;3567677;40;20065;-67
2023/01/04 00:23:45;;;;;;;6.47;2.42;;;;;;;8.73;85.55;101581.88;3568498;40;20051;-67
2023/01/04 00:26:18;;;;;;;6.25;2.10;;;;;;;9.37;85.34;101670.31;3569360;40;20057;-67
2023/01/04 00:28:44;;;;;;;4.90;2.33;;;;;;;9.35;85.63;101658.75;3567988;40;20048;-67
2023/01/04 00:31:13;;;;;;;10.77;2.67;;;;;;;9.40;86.86;101658.59;3569750;40;20387;-66
2023/01/04 00:33:39;;;;;;;5.30;2.20;;;;;;;9.36;86.50;101657.84;3568454;40;20056;-66
2023/01/04 00:36:13;;;;;;;8.13;2.42;;;;;;;9.41;86.82;101652.28;3568197;40;20296;-66
2023/01/04 00:38:41;;;;;;;6.25;2.53;;;;;;;9.44;86.33;101649.44;3568380;40;20052;-66
2023/01/04 00:41:09;;;;;;;7.10;2.40;;;;;;;9.46;86.86;101666.38;3566874;40;20086;-66
2023/01/04 00:43:35;;;;;;;3.63;2.13;;;;;;;9.46;86.31;101632.34;3568341;40;20053;-65
2023/01/04 00:46:01;;;;;;;7.32;2.40;;;;;;;9.49;86.56;101639.41;3567830;40;20080;-66
2023/01/04 00:48:29;;;;;;;5.03;2.33;;;;;;;9.49;86.61;101631.34;3567702;40;20049;-67
2023/01/04 00:50:55;;;;;;;4.32;2.45;;;;;;;9.51;87.15;101618.72;3569639;40;20354;-67
2023/01/04 00:53:21;;;;;;;4.47;2.38;;;;;;;9.53;87.25;101623.06;3568896;40;20061;-66
2023/01/04 00:55:47;;;;;;;3.47;2.25;;;;;;;9.54;86.82;101635.53;3565407;40;20079;-66
2023/01/04 00:58:13;;;;;;;4.13;1.98;;;;;;;9.52;87.00;101610.59;3568891;40;20097;-66
2023/01/04 01:00:39;;;;;;;4.00;2.20;;;;;;;9.57;86.84;101623.81;3567470;40;20092;-68
2023/01/04 01:03:05;;;;;;;9.55;2.40;;;;;;;9.58;87.45;101611.25;3567678;40;20057;-66
2023/01/04 01:05:35;;;;;;;5.40;2.20;;;;;;;9.62;87.87;101604.81;3569501;40;20052;-67
2023/01/04 01:08:23;;;;;;;3.25;1.90;;;;;;;9.64;87.99;101614.56;3569674;40;20420;-68
2023/01/04 01:10:48;;;;;;;4.03;2.20;;;;;;;9.66;87.38;101609.97;3569028;40;20066;-67
2023/01/04 01:13:14;;;;;;;4.15;1.80;;;;;;;9.66;87.24;101603.75;3571795;40;20049;-67
2023/01/04 01:15:39;;;;;;;4.20;1.75;;;;;;;9.64;87.56;101593.09;3569270;40;20064;-66
2023/01/04 01:18:05;;;;;;;6.15;1.95;;;;;;;9.57;88.44;101582.69;3569350;40;20177;-67
2023/01/04 01:20:30;;;;;;;6.32;1.83;;;;;;;9.68;88.24;101594.69;3569588;40;20092;-67
2023/01/04 01:22:56;;;;;;;3.88;1.80;;;;;;;9.72;87.74;101596.28;3567301;40;20311;-66
2023/01/04 01:25:22;;;;;;;5.63;1.70;;;;;;;9.70;88.20;101602.66;3569732;40;20079;-66
2023/01/04 01:27:49;;;;;;;3.13;1.83;;;;;;;9.71;87.76;101599.91;3567952;40;20079;-66
2023/01/04 01:30:15;;;;;;;6.13;2.28;;;;;;;9.75;88.45;101592.59;3567335;40;20092;-66
2023/01/04 01:32:41;;;;;;;4.97;1.85;;;;;;;9.12;87.98;101481.88;3561485;40;20067;-65
2023/01/04 01:35:07;;;;;;;3.05;1.80;;;;;;;9.29;88.25;101522.19;3568745;40;20056;-66
2023/01/04 01:37:32;;;;;;;3.83;2.05;;;;;;;9.81;88.61;101586.06;3570310;40;20044;-65
2023/01/04 01:39:58;;;;;;;4.68;1.77;;;;;;;9.83;87.93;101579.69;3567861;40;20069;-65
2023/01/04 01:42:24;;;;;;;2.55;1.45;;;;;;;9.85;88.79;101579.59;3570761;40;20045;-65
2023/01/04 01:45:02;;;;;;;3.28;1.58;;;;;;;9.84;88.41;101572.50;3566645;40;20065;-66
2023/01/04 01:47:42;;;;;;;3.70;1.58;;;;;;;9.77;88.54;101559.34;3567863;40;20057;-66
2023/01/04 01:50:56;;;;;;;4.18;2.00;;;;;;;9.86;88.48;101571.44;3568835;40;20065;-65
2023/01/04 01:53:27;;;;;;;3.15;1.83;;;;;;;9.83;89.31;101571.63;3567681;40;20088;-65
2023/01/04 01:55:57;;;;;;;3.08;1.80;;;;;;;9.84;89.26;101570.69;3567349;40;20486;-65
2023/01/04 01:58:34;;;;;;;1.70;1.55;;;;;;;9.85;89.24;101572.41;3570176;40;20061;-65
2023/01/04 02:01:02;;;;;;;5.43;1.88;;;;;;;9.22;89.78;101467.09;3567316;40;20048;-65
2023/01/04 02:03:41;;;;;;;2.78;1.80;;;;;;;9.91;89.84;101574.81;3569269;40;20048;-65
2023/01/04 02:06:16;;;;;;;1.63;1.52;;;;;;;9.89;89.54;101559.69;3567781;40;20052;-65
2023/01/04 02:08:42;;;;;;;3.13;1.50;;;;;;;9.94;88.91;101563.91;3562731;40;20063;-65
2023/01/04 02:11:09;;;;;;;2.55;1.25;;;;;;;9.93;89.69;101581.00;3570039;40;20482;-65
2023/01/04 02:16:52;;;;;;;4.75;1.80;;;;;;;9.98;89.51;101568.19;3567492;40;20064;-65
2023/01/04 02:19:45;;;;;;;2.35;1.17;;;;;;;9.99;89.91;101580.69;3569630;40;20059;-65
2023/01/04 02:23:07;;;;;;;1.97;1.23;;;;;;;10.04;89.34;101571.53;3570731;40;20045;-65
2023/01/04 02:26:03;;;;;;;3.83;1.50;;;;;;;10.06;89.35;101586.66;3541683;40;20063;-66
2023/01/04 02:29:28;;;;;;;2.90;1.60;;;;;;;10.06;89.07;101572.34;3557705;40;20053;-66
2023/01/04 02:32:02;;;;;;;2.08;1.10;;;;;;;9.90;90.06;101534.63;3538765;40;20054;-67
2023/01/04 02:35:14;;;;;;;3.90;1.70;;;;;;;9.97;89.77;101534.22;3564725;40;20477;-67
2023/01/04 02:37:57;;;;;;;1.95;1.48;;;;;;;10.16;90.16;101562.91;3567107;40;20057;-67
2023/01/04 02:40:40;;;;;;;2.22;1.67;;;;;;;10.17;89.61;101545.81;3566541;40;20064;-66
2023/01/04 02:46:56;;;;;;;1.75;0.90;;;;;;;10.18;89.48;101528.75;3536537;40;20266;-66
2023/01/04 02:52:07;;;;;;;2.22;1.02;;;;;;;10.25;89.79;101524.84;3567925;40;20060;-65
2023/01/04 02:54:33;;;;;;;2.35;1.00;;;;;;;10.26;89.81;101521.22;3567993;40;20053;-66
2023/01/04 02:57:47;;;;;;;1.33;1.20;;;;;;;10.31;89.42;101507.59;3568522;40;20047;-65
2023/01/04 03:07:16;;;;;;;3.53;0.95;;;;;;;10.38;90.18;101496.44;3568753;40;20055;-65
2023/01/04 03:09:51;;;;;;;2.33;1.15;;;;;;;10.37;89.58;101502.78;3566556;40;20053;-65
2023/01/04 03:12:32;;;;;;;4.22;1.05;;;;;;;10.41;89.46;101498.97;3568051;40;20061;-65
2023/01/04 03:15:22;;;;;;;1.55;1.13;;;;;;;9.93;89.72;101384.06;3569850;40;20060;-64
2023/01/04 03:17:57;;;;;;;1.20;1.02;;;;;;;10.46;89.57;101485.28;3568506;40;20454;-65
2023/01/04 03:20:30;;;;;;;0.98;0.90;;;;;;;10.49;89.62;101466.31;3565870;40;20060;-64
2023/01/04 03:37:31;;;;;;;2.05;1.45;;;;;;;10.59;90.17;101474.78;3565485;40;20059;-65
2023/01/04 03:49:30;;;;;;;2.20;1.40;;;;;;;10.62;89.39;101432.47;3567685;40;20064;-65
2023/01/04 03:52:02;;;;;;;2.15;1.25;;;;;;;10.71;89.68;101438.31;3565570;40;20055;-64
2023/01/04 03:54:36;;;;;;;1.73;1.58;;;;;;;10.73;89.69;101442.69;3566878;40;20049;-64
2023/01/04 03:57:05;;;;;;;1.60;1.50;;;;;;;10.76;89.85;101422.81;3568456;40;20065;-64
2023/01/04 03:59:42;;;;;;;3.05;1.33;;;;;;;10.77;89.41;101432.63;3568332;40;20183;-64
2023/01/04 04:02:13;;;;;;;1.20;1.10;;;;;;;10.78;89.69;101442.41;3567338;40;20068;-65
2023/01/04 04:10:11;;;;;;;1.65;1.33;;;;;;;10.85;89.07;101416.97;3568749;40;20072;-65
2023/01/04 04:12:36;;;;;;;3.60;1.45;;;;;;;10.42;89.13;101334.06;3565948;40;20052;-65
2023/01/04 04:15:03;;;;;;;2.75;1.25;;;;;;;10.90;89.10;101418.44;3568729;40;20060;-65
2023/01/04 04:17:29;;;;;;;2.50;1.50;;;;;;;10.90;89.78;101417.56;3570005;40;20061;-65
2023/01/04 04:19:54;;;;;;;1.85;1.50;;;;;;;10.93;89.38;101414.72;3565729;40;20051;-65
2023/01/04 04:22:20;;;;;;;2.25;1.50;;;;;;;10.93;89.41;101410.19;3566710;40;20572;-65
2023/01/04 04:24:46;;;;;;;1.98;1.80;;;;;;;10.82;89.30;101390.22;3565991;40;20768;-65
2023/01/04 04:27:11;;;;;;;3.30;1.90;;;;;;;10.94;89.59;101400.31;3566355;40;20093;-65
2023/01/04 04:29:37;;;;;;;1.92;1.73;;;;;;;10.93;89.80;101404.81;3566286;40;20351;-65
2023/01/04 04:32:02;;;;;;;2.03;1.80;;;;;;;10.97;89.93;101413.59;3567859;40;20096;-65
2023/01/04 04:34:28;;;;;;;2.13;1.65;;;;;;;11.02;90.19;101399.91;3567292;40;20063;-65
2023/01/04 04:36:54;;;;;;;4.22;1.73;;;;;;;11.02;89.65;101389.13;3564423;40;20300;-64
2023/01/04 04:39:19;;;;;;;5.32;1.77;;;;;;;11.06;89.60;101386.19;3567869;40;20055;-65
2023/01/04 04:41:45;;;;;;;2.15;1.80;;;;;;;10.48;89.68;101283.63;3567199;40;20809;-64
2023/01/04 04:44:13;;;;;;;2.38;1.55;;;;;;;11.09;89.94;101372.56;3569363;40;20499;-64
2023/01/04 04:46:40;;;;;;;2.05;1.65;;;;;;;11.14;89.55;101372.31;3566838;40;20086;-63
2023/01/04 04:49:07;;;;;;;2.72;2.00;;;;;;;11.16;89.84;101394.63;3568095;40;20049;-63
2023/01/04 04:51:35;;;;;;;1.83;1.52;;;;;;;11.19;89.90;101367.53;3567259;40;20045;-63
2023/01/04 04:54:03;;;;;;;3.72;1.85;;;;;;;11.23;89.42;101377.19;3566761;40;20052;-64
2023/01/04 04:56:28;;;;;;;4.03;1.67;;;;;;;11.27;89.39;101368.00;3566278;40;20115;-64
2023/01/04 04:58:54;;;;;;;4.03;1.60;;;;;;;11.27;89.48;101354.53;3568251;40;20299;-63
2023/01/04 05:01:20;;;;;;;4.80;1.73;;;;;;;11.31;89.31;101366.84;3569976;40;20770;-63
2023/01/04 05:03:46;;;;;;;2.42;1.60;;;;;;;10.85;88.98;101287.88;3566473;40;20110;-63
2023/01/04 05:06:12;;;;;;;2.05;1.45;;;;;;;11.35;89.18;101354.97;3570622;40;20056;-65
2023/01/04 05:08:37;;;;;;;2.67;1.63;;;;;;;11.42;88.65;101352.81;3567324;40;20100;-64
2023/01/04 05:11:07;;;;;;;2.17;1.60;;;;;;;11.43;88.72;101356.38;3568120;40;20053;-64
2023/01/04 05:13:33;;;;;;;2.85;1.60;;;;;;;11.46;88.06;101354.38;3562213;40;20327;-64
2023/01/04 05:16:02;;;;;;;2.95;1.70;;;;;;;11.51;87.95;101352.28;3566438;40;20053;-64
2023/01/04 05:18:27;;;;;;;3.33;1.80;;;;;;;11.54;87.81;101357.47;3571129;40;20307;-63
2023/01/04 05:20:53;;;;;;;3.05;1.70;;;;;;;11.53;87.77;101349.50;3567075;40;20068;-62
2023/01/04 05:23:21;;;;;;;2.63;1.48;;;;;;;11.58;87.62;101342.03;3569943;40;20049;-63
2023/01/04 05:26:00;;;;;;;2.25;1.70;;;;;;;11.61;87.79;101350.78;3569153;40;20454;-63
2023/01/04 05:28:26;;;;;;;3.20;1.55;;;;;;;11.63;87.48;101345.31;3567863;40;20067;-63
2023/01/04 05:30:54;;;;;;;3.70;1.92;;;;;;;11.64;87.11;101336.28;3569279;40;20105;-63
2023/01/04 05:33:21;;;;;;;3.47;1.50;;;;;;;11.66;87.64;101328.09;3569551;40;20644;-63
2023/01/04 05:35:48;;;;;;;4.10;1.70;;;;;;;11.67;87.34;101344.19;3565137;40;20073;-63
2023/01/04 05:38:14;;;;;;;2.53;1.48;;;;;;;11.71;87.31;101353.81;3566315;40;20059;-63
2023/01/04 05:40:40;;;;;;;3.42;1.40;;;;;;;11.72;86.64;101327.75;3570273;40;20045;-63
2023/01/04 05:43:06;;;;;;;1.83;1.50;;;;;;;11.74;87.17;101332.09;3568578;40;20307;-63
2023/01/04 05:45:32;;;;;;;3.33;1.55;;;;;;;11.74;87.37;101320.47;3566882;40;20053;-63
2023/01/04 05:47:58;;;;;;;3.20;1.63;;;;;;;11.73;87.07;101313.31;3567575;40;20057;-64
2023/01/04 05:50:24;;;;;;;3.10;1.73;;;;;;;11.30;87.57;101246.72;3569087;40;20067;-64
2023/01/04 05:52:52;;;;;;;2.63;1.75;;;;;;;11.68;87.87;101316.28;3566141;40;20269;-64
2023/01/04 05:55:18;;;;;;;2.40;1.50;;;;;;;11.24;87.89;101252.44;3566040;40;20127;-64
2023/01/04 05:57:44;;;;;;;2.22;1.48;;;;;;;11.71;88.65;101321.50;3566243;40;20083;-64
2023/01/04 06:00:12;;;;;;;2.45;1.05;;;;;;;11.73;88.37;101316.88;3568206;40;20373;-63
2023/01/04 06:02:40;;;;;;;1.55;1.38;;;;;;;11.75;88.57;101301.50;3565938;40;20053;-63
2023/01/04 06:05:07;;;;;;;1.67;1.20;;;;;;;11.75;88.42;101303.34;3566384;40;20053;-64
2023/01/04 06:07:33;;;;;;;1.95;1.20;;;;;;;11.81;87.93;101311.06;3565827;40;20057;-63
2023/01/04 06:09:58;;;;;;;1.85;1.30;;;;;;;11.84;87.47;101317.16;3564883;40;20049;-63
2023/01/04 06:12:24;;;;;;;3.65;1.40;;;;;;;11.72;87.35;101292.75;3565717;40;20059;-64
2023/01/04 06:14:50;;;;;;;3.83;1.50;;;;;;;11.87;87.69;101309.84;3562473;40;20085;-64
2023/01/04 06:17:16;;;;;;;2.22;1.00;;;;;;;11.89;87.90;101318.69;3568509;40;20444;-65
2023/01/04 06:19:42;;;;;;;3.97;1.35;;;;;;;11.89;87.41;101324.09;3560917;40;20394;-66
2023/01/04 06:22:08;;;;;;;1.45;1.00;;;;;;;11.88;87.85;101330.44;3565798;40;20049;-65
2023/01/04 06:24:34;;;;;;;4.13;1.20;;;;;;;11.83;88.69;101328.88;3570069;40;20088;-64
2023/01/04 06:27:01;;;;;;;2.17;1.33;;;;;;;11.71;88.65;101316.13;3564077;40;20323;-65
2023/01/04 06:29:27;;;;;;;3.03;1.42;;;;;;;11.81;89.10;101325.38;3568947;40;20376;-64
2023/01/04 06:31:53;;;;;;;2.65;1.40;;;;;;;11.76;89.55;101308.59;3566309;40;20049;-64
2023/01/04 06:34:18;;;;;;;2.15;1.40;;;;;;;11.73;89.92;101287.25;3570022;40;20105;-64
2023/01/04 06:36:44;;;;;;;3.10;1.40;;;;;;;11.76;89.74;101297.84;3560198;40;20112;-64
2023/01/04 06:39:10;;;;;;;2.28;1.60;;;;;;;11.73;90.35;101289.06;3565733;40;20057;-64
2023/01/04 06:41:35;;;;;;;2.45;1.40;;;;;;;11.73;90.37;101289.94;3568394;40;20084;-63
2023/01/04 06:44:02;;;;;;;2.95;1.33;;;;;;;11.74;90.17;101305.16;3566720;40;20383;-63
2023/01/04 06:46:27;;;;;;;1.95;1.20;;;;;;;11.73;90.59;101303.41;3568347;40;20323;-64
2023/01/04 06:48:53;;;;;;;1.98;1.05;;;;;;;11.75;90.35;101301.50;3569310;40;20870;-64
2023/01/04 06:51:20;;;;;;;4.20;1.45;;;;;;;11.10;90.59;101195.84;3567252;40;20064;-65
2023/01/04 06:53:46;;;;;;;1.63;1.10;;;;;;;11.76;90.51;101322.06;3568195;40;20069;-63
2023/01/04 06:56:11;;;;;;;4.20;1.50;;;;;;;11.80;90.84;101302.09;3567425;40;20496;-64
2023/01/04 06:58:37;;;;;;;2.85;1.20;;;;;;;11.81;89.98;101308.34;3567726;40;20365;-63
2023/01/04 07:01:04;;;;;;;3.47;1.20;;;;;;;11.83;90.26;101304.63;3566858;40;20070;-64
2023/01/04 07:03:30;;;;;;;1.45;0.95;;;;;;;11.88;89.86;101303.50;3564342;40;20068;-63
2023/01/04 07:05:56;;;;;;;3.22;1.33;;;;;;;11.92;89.77;101299.66;3567118;40;20060;-64
2023/01/04 07:08:21;;;;;;;3.80;1.02;;;;;;;11.94;89.52;101281.59;3564888;40;20064;-64
2023/01/04 07:10:47;;;;;;;1.88;1.30;;;;;;;11.97;89.29;101302.97;3566098;40;20095;-64
2023/01/04 07:13:13;;;;;;;0.90;0.90;;;;;;;11.98;89.33;101293.91;3568955;40;20072;-64
2023/01/04 07:15:39;;;;;;;4.18;1.10;;;;;;;12.00;88.76;101286.59;3567258;40;20073;-63
2023/01/04 07:18:05;;;;;;;1.67;1.00;;;;;;;12.07;88.14;101304.13;3559135;40;20066;-63
2023/01/04 07:20:30;;;;;;;1.95;1.08;;;;;;;12.17;87.43;101272.09;3562112;40;20067;-64
2023/01/04 07:22:56;;;;;;;2.08;0.90;;;;;;;12.16;86.52;101259.59;3564114;40;20052;-63
2023/01/04 07:25:21;;;;;;;1.55;1.00;;;;;;;12.24;86.25;101277.03;3568324;40;20318;-64
2023/01/04 07:27:52;;;;;;;2.70;0.90;;;;;;;12.32;85.80;101276.53;3567919;40;20064;-63
2023/01/04 07:30:20;;;;;;;2.25;0.90;;;;;;;12.35;85.39;101262.00;3559692;40;20053;-63
2023/01/04 07:32:45;;;;;;;0.98;0.80;;;;;;;12.34;85.38;101246.78;3566161;40;20090;-63
2023/01/04 07:35:11;;;;;;;3.13;0.80;;;;;;;12.37;85.04;101255.56;3569013;40;20403;-63
2023/01/04 07:37:37;;;;;;;2.65;0.90;;;;;;;12.40;84.56;101263.47;3564036;40;20060;-63
2023/01/04 07:40:03;;;;;;;2.08;0.90;;;;;;;11.82;84.61;101203.19;3566922;40;20053;-63
2023/01/04 07:42:29;;;;;;;1.38;0.70;;;;;;;12.43;84.16;101249.81;3559081;40;20102;-63
2023/01/04 07:44:55;;;;;;;3.78;0.70;;;;;;;12.46;83.90;101252.31;3567326;40;20089;-63
2023/01/04 07:47:21;;;;;;;3.33;1.02;;;;;;;12.50;83.84;101277.25;3566884;40;20312;-63
2023/01/04 07:49:48;;;;;;;1.40;0.88;;;;;;;12.53;83.15;101268.97;3563402;40;20045;-63
2023/01/04 07:52:15;;;;;;;1.73;0.90;;;;;;;12.54;83.11;101252.66;3566893;40;20056;-63
2023/01/04 07:54:41;;;;;;;2.22;0.90;;;;;;;12.55;83.20;101253.53;3565873;40;20324;-63
2023/01/04 07:57:06;;;;;;;4.30;1.10;;;;;;;11.95;82.94;101149.47;3564554;40;20059;-63
2023/01/04 07:59:32;;;;;;;2.67;0.93;;;;;;;12.60;83.09;101262.22;3567028;40;20107;-64
2023/01/04 08:01:58;;;;;;;2.63;1.00;;;;;;;12.61;82.78;101222.63;3567517;40;20067;-63
2023/01/04 08:04:24;;;;;;;2.53;1.05;;;;;;;12.62;82.88;101235.13;3569241;40;20409;-63
2023/01/04 08:06:50;;;;;;;4.18;1.27;;;;;;;12.63;82.61;101240.44;3567752;40;20056;-63
2023/01/04 08:09:17;;;;;;;3.45;1.17;;;;;;;12.63;83.00;101240.44;3567677;40;20054;-63
2023/01/04 08:11:44;;;;;;;3.83;1.00;;;;;;;12.64;82.90;101242.16;3566572;40;20135;-63
2023/01/04 08:14:11;;;;;;;2.75;1.20;;;;;;;12.69;82.35;101256.22;3569292;40;20059;-63
2023/01/04 08:16:41;;;;;;;1.98;1.10;;;;;;;12.72;82.45;101266.81;3567118;40;20048;-63
2023/01/04 08:19:19;;;;;;;3.80;1.00;;;;;;;12.73;82.25;101273.94;3565802;40;20127;-63
2023/01/04 08:21:45;;;;;;;3.50;1.00;;;;;;;12.74;82.61;101262.19;3570164;40;20065;-63
2023/01/04 08:24:16;;;;;;;2.33;1.10;;;;;;;12.71;82.46;101267.75;3567304;40;20064;-63
2023/01/04 08:26:43;;;;;;;2.10;1.00;;;;;;;12.72;82.42;101269.53;3565494;40;20057;-63
2023/01/04 08:29:09;;;;;;;2.90;1.10;;;;;;;12.74;82.13;101261.31;3568176;40;20064;-63
2023/01/04 08:31:35;;;;;;;2.45;0.90;;;;;;;12.79;82.46;101261.91;3568774;40;20060;-64
2023/01/04 08:34:05;;;;;;;2.25;1.00;;;;;;;12.84;82.09;101261.59;3570289;40;20126;-65
2023/01/04 08:36:42;;;;;;;3.67;1.55;;;;;;;12.84;82.04;101258.91;3568834;40;20323;-65
2023/01/04 08:39:08;;;;;;;3.92;1.17;;;;;;;12.86;82.43;101273.16;3568365;40;20099;-64
2023/01/04 08:41:49;;;;;;;4.28;0.90;;;;;;;12.87;82.34;101275.75;3569035;40;20494;-65
2023/01/04 08:44:20;;;;;;;4.20;1.20;;;;;;;12.89;82.13;101270.25;3566231;40;20072;-64
2023/01/04 08:46:47;;;;;;;4.63;1.33;;;;;;;12.91;81.67;101273.75;3557029;40;20067;-64
2023/01/04 08:49:13;;;;;;;5.63;1.52;;;;;;;12.97;81.45;101276.00;3567616;40;20053;-65
2023/01/04 08:51:39;;;;;;;5.50;1.20;;;;;;;12.43;81.56;101181.50;3569173;40;20413;-65
2023/01/04 08:54:05;;;;;;;5.55;1.40;;;;;;;12.99;80.98;101274.09;3565015;40;20071;-65
2023/01/04 08:56:31;;;;;;;3.33;1.48;;;;;;;12.80;81.26;101235.78;3570179;40;20061;-65
2023/01/04 08:58:56;;;;;;;4.00;1.00;;;;;;;13.00;81.46;101286.63;3563796;40;20057;-65
2023/01/04 09:01:22;;;;;;;1.95;0.80;;;;;;;13.04;80.88;101288.16;3558825;40;20076;-65
2023/01/04 09:03:48;;;;;;;1.95;0.90;;;;;;;13.05;81.02;101267.44;3568763;40;20070;-66
2023/01/04 09:06:16;;;;;;;4.57;1.30;;;;;;;12.46;80.52;101167.81;3566725;40;20068;-66
2023/01/04 09:08:43;;;;;;;2.63;1.25;;;;;;;13.12;80.55;101283.13;3565835;40;20045;-65
2023/01/04 09:11:14;;;;;;;2.58;1.15;;;;;;;13.16;80.67;101276.59;3571118;40;20126;-66
2023/01/04 09:13:42;;;;;;;2.78;1.02;;;;;;;13.09;80.30;101264.44;3561871;40;20080;-66
2023/01/04 09:16:15;;;;;;;2.78;0.90;;;;;;;13.15;80.36;101274.81;3571247;40;20095;-65
2023/01/04 09:18:42;;;;;;;2.55;0.90;;;;;;;13.17;80.82;101269.34;3567777;40;20057;-66
2023/01/04 09:21:15;;;;;;;4.55;1.10;;;;;;;13.12;81.07;101269.63;3567913;40;20061;-66
2023/01/04 09:23:43;;;;;;;3.33;1.10;;;;;;;13.06;82.19;101291.63;3565191;40;20061;-66
2023/01/04 09:26:17;;;;;;;2.22;0.95;;;;;;;13.04;82.12;101265.72;3565546;40;20123;-67
2023/01/04 09:28:44;;;;;;;4.45;1.00;;;;;;;13.01;82.48;101270.34;3567215;40;20060;-67
2023/01/04 09:31:24;;;;;;;3.85;1.10;;;;;;;13.00;83.30;101274.00;3566687;40;20041;-67
2023/01/04 09:33:50;;;;;;;3.58;1.20;;;;;;;12.35;83.54;101171.22;3568689;40;20419;-67
2023/01/04 09:36:18;;;;;;;3.05;1.10;;;;;;;12.98;83.92;101283.16;3568115;40;20053;-66
2023/01/04 09:38:44;;;;;;;6.00;3.60;;;;;;;12.96;83.67;101285.94;3567386;40;20343;-66
2023/01/04 09:41:12;;;;;;;6.10;4.40;;;;;;;12.93;84.20;101279.88;3555915;40;20219;-67
2023/01/04 09:44:08;;;;;;;8.88;5.70;;;;;;;12.86;84.44;101297.44;3566081;40;20690;-67
2023/01/04 09:46:44;;;;;;;4.57;2.22;;;;;;;12.76;85.09;101275.59;3564616;40;20085;-67
2023/01/04 09:49:19;;;;;;;4.50;1.25;;;;;;;12.69;86.22;101271.56;3568125;40;20089;-66
2023/01/04 09:52:10;;;;;;;4.68;1.73;;;;;;;12.65;86.66;101270.84;3568767;40;20322;-66
2023/01/04 09:55:17;;;;;;;4.65;1.40;;;;;;;12.08;87.53;101193.56;3565846;40;20061;-63
2023/01/04 09:57:52;;;;;;;2.70;1.33;;;;;;;12.61;88.00;101274.72;3561011;40;20901;-64
2023/01/04 10:00:31;;;;;;;1.95;1.17;;;;;;;12.62;88.08;101281.84;3566624;40;20076;-66
2023/01/04 10:03:17;;;;;;;2.30;1.30;;;;;;;12.57;88.42;101250.75;3564807;40;20045;-66
2023/01/04 10:05:43;;;;;;;2.75;1.48;;;;;;;12.64;88.53;101263.72;3567827;40;20093;-65
2023/01/04 10:08:18;;;;;;;5.65;1.75;;;;;;;12.64;88.72;101261.03;3567330;40;20089;-66
2023/01/04 10:11:14;;;;;;;4.88;1.90;;;;;;;12.64;88.77;101263.72;3567221;40;20075;-67
2023/01/04 10:13:39;;;;;;;5.38;1.52;;;;;;;12.63;88.65;101262.00;3570982;40;20065;-67
2023/01/04 10:16:29;;;;;;;5.35;2.60;;;;;;;12.63;89.02;101266.53;3567482;40;20076;-67
2023/01/04 10:19:36;;;;;;;4.60;2.00;;;;;;;12.55;89.15;101257.09;3564301;40;20099;-67
2023/01/04 10:22:30;;;;;;;5.55;2.20;;;;;;;12.57;90.02;101254.31;3566637;40;20083;-66
2023/01/04 10:25:18;;;;;;;3.75;1.80;;;;;;;12.49;89.86;101243.13;3566027;40;20056;-66
2023/01/04 10:28:19;;;;;;;5.13;2.22;;;;;;;12.58;89.84;101269.50;3569140;40;20480;-66
2023/01/04 10:30:45;;;;;;;2.42;1.98;;;;;;;12.60;89.71;101255.94;3565633;40;20396;-67
2023/01/04 10:33:45;;;;;;;5.30;1.95;;;;;;;12.51;90.13;101252.00;3567461;40;20160;-66
2023/01/04 10:36:23;;;;;;;4.78;1.73;;;;;;;12.22;90.05;101190.00;3568956;40;20140;-66
2023/01/04 10:39:01;;;;;;;3.20;1.80;;;;;;;12.59;90.17;101257.78;3565679;40;20061;-65
2023/01/04 10:41:37;;;;;;;5.03;1.77;;;;;;;12.59;90.29;101255.09;3567296;40;20072;-66
2023/01/04 10:44:46;;;;;;;4.53;1.75;;;;;;;12.61;90.57;101206.44;3566310;40;20049;-67
2023/01/04 10:47:18;;;;;;;4.70;1.90;;;;;;;12.61;90.30;101263.94;3550166;40;20060;-66
2023/01/04 10:49:53;;;;;;;4.78;1.70;;;;;;;12.59;90.59;101247.00;3564410;40;20048;-67
2023/01/04 10:52:42;;;;;;;5.50;2.05;;;;;;;12.60;90.88;101224.44;3567869;40;20064;-66
2023/01/04 10:55:46;;;;;;;2.20;1.48;;;;;;;12.60;90.88;101251.41;3567690;40;20064;-66
2023/01/04 10:58:23;;;;;;;4.80;2.55;;;;;;;12.59;90.85;101230.81;3567407;40;20103;-67
2023/01/04 11:01:07;;;;;;;4.40;2.40;;;;;;;12.62;91.02;101233.28;3567917;40;20059;-67
2023/01/04 11:03:47;;;;;;;3.65;1.75;;;;;;;12.63;91.04;101228.78;3569020;40;20037;-66
2023/01/04 11:06:41;;;;;;;6.45;2.38;;;;;;;12.59;91.46;101236.22;3569518;40;20182;-67
2023/01/04 11:09:41;;;;;;;;;;;;;;;12.59;91.65;101230.81;3568181;40;20280;-67
2023/01/04 11:12:14;;;;;;;4.03;2.20;;;;;;;12.59;91.66;101249.69;3563806;40;19950;-66
2023/01/04 11:14:40;;;;;;;3.85;1.33;;;;;;;12.60;91.50;101237.94;3565792;40;20162;-66
2023/01/04 11:17:10;;;;;;;2.10;1.60;;;;;;;12.61;91.45;101247.75;3565031;40;20072;-67
2023/01/04 11:19:36;;;;;;;3.03;1.35;;;;;;;12.04;91.69;101146.19;3567156;40;20521;-66
2023/01/04 11:22:57;;;;;;;4.15;1.02;;;;;;;12.63;91.83;101235.03;3566306;40;20044;-66
2023/01/04 11:25:24;;;;;;;1.60;1.00;;;;;;;12.65;91.60;101233.09;3550828;40;20061;-67
2023/01/04 11:28:17;;;;;;;2.13;0.82;;;;;;;12.66;91.63;101240.25;3565085;40;20462;-67
2023/01/04 11:31:08;;;;;;;2.25;1.17;;;;;;;12.64;91.77;101235.91;3566240;40;20352;-66
2023/01/04 11:34:01;;;;;;;3.35;1.90;;;;;;;12.63;91.64;101235.03;3567167;40;20993;-66
2023/01/04 11:36:30;;;;;;;1.38;0.90;;;;;;;12.66;91.75;101240.25;3567061;40;20057;-66
2023/01/04 11:38:57;;;;;;;2.25;1.52;;;;;;;12.66;92.13;101239.38;3566328;40;20112;-66
2023/01/04 11:41:24;;;;;;;1.45;1.35;;;;;;;12.65;92.13;101230.41;3567427;40;20435;-66
2023/01/04 11:44:18;;;;;;;1.25;0.88;;;;;;;12.60;91.96;101227.16;3566487;40;20119;-67
2023/01/04 11:46:43;;;;;;;1.35;0.70;;;;;;;11.88;92.10;101106.84;3563914;40;20057;-66
2023/01/04 11:49:19;;;;;;;1.25;0.82;;;;;;;12.67;91.98;101246.50;3565693;40;20076;-67
2023/01/04 11:51:44;;;;;;;1.10;0.63;;;;;;;12.66;92.39;101236.69;3566291;40;20060;-66
2023/01/04 11:54:13;;;;;;;1.75;0.60;;;;;;;12.64;92.11;101236.75;3566525;40;20464;-65
2023/01/04 11:57:09;;;;;;;0.75;0.75;;;;;;;12.66;92.25;101234.84;3566421;40;20065;-65
2023/01/04 11:59:34;;;;;;;1.13;0.73;;;;;;;12.64;92.65;101244.84;3567878;40;20406;-66
2023/01/04 12:02:22;;;;;;;0.70;0.70;;;;;;;12.61;92.04;101236.97;3564572;40;20064;-66
2023/01/04 12:04:51;;;;;;;2.97;0.90;;;;;;;12.23;92.57;101170.16;3565837;40;20382;-66
2023/01/04 12:07:35;;;;;;;0.95;0.75;;;;;;;12.61;92.48;101236.97;3562591;40;20315;-66
2023/01/04 12:10:20;;;;;;;;;;;;;;;12.62;92.72;101238.69;3567018;40;20045;-68
2023/01/04 12:12:47;;;;;;;2.85;2.25;;;;;;;12.64;92.79;101242.16;3567431;40;20243;-66
2023/01/04 12:15:36;;;;;;;1.05;0.60;;;;;;;12.65;92.96;101245.72;3566657;40;20050;-66
2023/01/04 12:18:25;;;;;;;0.70;0.50;;;;;;;12.70;93.26;101257.09;3567179;40;20045;-66
2023/01/04 12:20:51;;;;;;;1.65;0.50;;;;;;;12.68;92.90;101243.69;3565534;40;20053;-65
2023/01/04 12:23:17;;;;;;;0.75;0.45;;;;;;;12.72;92.78;101244.38;3565543;40;20053;-66
2023/01/04 12:25:50;;;;;;;0.73;0.50;;;;;;;12.72;92.82;101253.34;3566042;40;20059;-66
2023/01/04 12:28:39;;;;;;;0.50;0.40;;;;;;;12.74;92.59;101242.44;3566569;40;20396;-64
2023/01/04 12:31:20;;;;;;;0.52;0.40;;;;;;;12.74;92.65;101255.91;3564055;40;20072;-65
2023/01/04 12:33:55;;;;;;;1.73;0.50;;;;;;;12.68;92.80;101230.19;3565479;40;20064;-65
2023/01/04 12:36:38;;;;;;;0.30;0.30;;;;;;;12.77;92.32;101232.31;3566167;40;20356;-65